Aérodrome :
LOGIN :

S'inscrire | Disclaimer

   EN    FR    IT 

 










Légende :    VFR   VFR Marginal   IFR   IFR Intensif   IFR Très Intensif
Visi : 
Plafond : 
>= 8 km
>= 3000ft
5 à 8 km
1000 à 3000 ft
1500m à 5 km
500 à 1000 ft
800 à 1500m
200 à 500 ft
< 800m
< 200 ft
Symboles :   Orages  Brouillard  Fortes neiges  Fortes précipitations  Vent > 20 kt
SIGMETs :   Divers  Orages  Givrage  Turbulence  Onde Orograph.  Cendres Volcan.






- Altitude de l'aérodrome : 48 ft
- Code IATA : PSR


LIBP - Abruzzo Pescara

DERNIER METAR :
  • 260620Z AUTO 23004KT 200V260 9999 NCD 20/12 Q1017

METARs EXPIRÉS :
  • 260550Z AUTO 24004KT 9999 NCD 18/12 Q1017
  • 260520Z AUTO 24004KT 9999 NCD 16/12 Q1017
  • 260450Z AUTO 21006KT 9999 NCD 14/13 Q1017
  • 260420Z AUTO 23003KT 9999 NCD 13/13 Q1017
  • 260350Z AUTO 25003KT 9999 NCD 12/12 Q1016
  • 260320Z AUTO 23004KT 9999 NCD 12/12 Q1016
  • 260250Z AUTO 24003KT 200V260 9999 NCD 13/11 Q1016
  • 260220Z AUTO 24005KT 9999 NCD 14/11 Q1016
  • 260150Z AUTO 25004KT 9999 NCD 14/11 Q1016
  • 260120Z AUTO 25005KT 9999 NCD 14/11 Q1016

TAF TAF LIBP
Valide du 26 à 06h jusqu'au 27 à 06h UTC


260500Z 2606/2706 23005KT 9999 FEW040
BECMG 2608/2610 01012KT
BECMG 2616/2618 VRB05KT



MET'MAP, la Météo Aéronautique d'un coup d'oeil ! - Copyright ORBIFLY Décembre 2007 - Disclaimer

ORBIFLY MET'MAP TEAM :

Programmation & Développement : Alexandra Zaïnal
Sur une idée originale de : Baudouin d'Aumeries
Soutien technique & logistique : Manuel Goepfert
Assistance : Marc-Olivier Méhu




SOURCES & CREDITS :

   NOAA